Time;durP1;ratioP1;P1;durP2;ratioP2;P2;SDS_P1;SDS_P2;PMS_P1;PMS_P2;Temp;Humidity;BMP_temperature;BMP_pressure;BME280_temperature;BME280_humidity;BME280_pressure;Samples;Min_cycle;Max_cycle;Signal;HPM_P1;HPM_P2
2023/08/10 00:00:54;;;;;;;7.10;1.83;;;14.00;99.90;;;;;;5055315;28;20048;-74
2023/08/10 00:03:20;;;;;;;9.75;2.30;;;14.00;99.90;;;;;;5054321;28;20057;-73
2023/08/10 00:05:45;;;;;;;9.30;2.40;;;13.90;99.90;;;;;;5057613;28;20041;-74
2023/08/10 00:08:11;;;;;;;8.65;2.10;;;14.00;99.90;;;;;;5057448;28;20049;-73
2023/08/10 00:10:37;;;;;;;7.35;2.53;;;14.00;99.90;;;;;;5056987;28;20390;-74
2023/08/10 00:13:03;;;;;;;9.40;2.30;;;14.00;99.90;;;;;;5056420;28;20049;-74
2023/08/10 00:15:29;;;;;;;8.68;2.15;;;14.00;99.90;;;;;;5056199;28;20037;-73
2023/08/10 00:17:55;;;;;;;9.27;2.40;;;13.90;99.90;;;;;;5038411;28;20489;-74
2023/08/10 00:20:21;;;;;;;12.13;2.27;;;13.90;99.90;;;;;;5055407;28;20385;-73
2023/08/10 00:22:47;;;;;;;11.80;2.75;;;13.90;99.90;;;;;;5055733;28;20055;-73
2023/08/10 00:25:13;;;;;;;8.05;2.10;;;13.80;99.90;;;;;;5055399;28;20049;-73
2023/08/10 00:27:38;;;;;;;9.68;2.90;;;13.90;99.90;;;;;;5052800;28;20049;-74
2023/08/10 00:30:06;;;;;;;9.32;2.47;;;13.90;99.90;;;;;;5036472;28;20045;-73
2023/08/10 00:32:31;;;;;;;11.88;2.80;;;13.80;99.90;;;;;;5054653;28;20110;-74
2023/08/10 00:34:57;;;;;;;9.35;2.40;;;13.90;99.90;;;;;;5036195;28;20485;-74
2023/08/10 00:37:23;;;;;;;10.07;2.42;;;13.90;99.90;;;;;;5054349;28;20090;-73
2023/08/10 00:39:49;;;;;;;15.13;2.88;;;13.90;99.90;;;;;;5054689;28;20049;-73
2023/08/10 00:42:14;;;;;;;8.77;2.40;;;13.90;99.90;;;;;;5053397;28;20049;-73
2023/08/10 00:44:40;;;;;;;8.82;2.63;;;13.90;99.90;;;;;;5053940;28;20060;-73
2023/08/10 00:47:07;;;;;;;11.70;2.60;;;13.90;99.90;;;;;;5069268;28;20082;-73
2023/08/10 00:49:33;;;;;;;9.75;2.40;;;13.90;99.90;;;;;;5052679;28;20152;-72
2023/08/10 00:51:59;;;;;;;10.37;2.27;;;13.80;99.90;;;;;;5053686;28;20053;-74
2023/08/10 00:54:25;;;;;;;10.43;2.45;;;13.80;99.90;;;;;;5054315;28;20296;-72
2023/08/10 00:56:50;;;;;;;9.95;2.40;;;13.80;99.90;;;;;;5036126;28;20388;-74
2023/08/10 00:59:16;;;;;;;6.78;1.95;;;13.90;99.90;;;;;;5052448;28;20049;-73
2023/08/10 01:01:44;;;;;;;9.77;2.28;;;13.80;99.90;;;;;;5053273;28;20084;-73
2023/08/10 01:04:10;;;;;;;8.73;2.40;;;13.90;99.90;;;;;;5053450;28;20049;-74
2023/08/10 01:06:56;;;;;;;10.48;2.40;;;13.90;99.90;;;;;;5053364;28;20132;-72
2023/08/10 01:09:43;;;;;;;11.13;2.30;;;13.80;99.90;;;;;;5052299;28;20081;-75
2023/08/10 01:12:33;;;;;;;8.85;2.40;;;13.80;99.90;;;;;;5054339;28;20386;-74
2023/08/10 01:15:11;;;;;;;13.40;2.20;;;13.80;99.90;;;;;;5052537;28;20045;-73
2023/08/10 01:17:48;;;;;;;5.63;1.95;;;13.80;99.90;;;;;;5052412;28;20436;-74
2023/08/10 01:20:17;;;;;;;7.15;2.58;;;13.80;99.90;;;;;;5054199;28;20041;-74
2023/08/10 01:23:09;;;;;;;9.02;2.58;;;13.80;99.90;;;;;;5052098;28;20130;-74
2023/08/10 01:25:37;;;;;;;9.10;2.60;;;13.80;99.90;;;;;;5053935;28;20075;-72
2023/08/10 01:28:03;;;;;;;11.52;2.30;;;13.80;99.90;;;;;;5052108;28;20049;-74
2023/08/10 01:30:29;;;;;;;14.00;2.92;;;13.80;99.90;;;;;;5053353;28;20041;-72
2023/08/10 01:32:54;;;;;;;7.30;2.63;;;13.80;99.90;;;;;;5054880;28;20045;-75
2023/08/10 01:35:20;;;;;;;9.95;2.95;;;13.80;99.90;;;;;;5056059;28;20055;-74
2023/08/10 01:37:46;;;;;;;13.07;2.70;;;13.80;99.90;;;;;;5057145;28;20052;-73
2023/08/10 01:40:13;;;;;;;11.05;2.83;;;13.80;99.90;;;;;;5057208;28;20047;-74
2023/08/10 01:42:44;;;;;;;14.45;3.15;;;13.80;99.90;;;;;;5057263;28;20099;-74
2023/08/10 01:45:10;;;;;;;11.18;3.20;;;13.70;99.90;;;;;;5058041;28;20408;-74
2023/08/10 01:47:55;;;;;;;9.70;3.22;;;13.70;99.90;;;;;;5056013;28;20049;-73
2023/08/10 01:50:24;;;;;;;9.80;3.17;;;13.60;99.90;;;;;;5057426;28;20154;-74
2023/08/10 01:52:53;;;;;;;16.17;3.25;;;13.50;99.90;;;;;;5056330;28;20045;-73
2023/08/10 01:55:20;;;;;;;10.18;3.50;;;13.40;99.90;;;;;;5056866;28;20151;-74
2023/08/10 01:57:47;;;;;;;13.55;3.33;;;13.40;99.90;;;;;;5056642;28;20041;-74
2023/08/10 02:00:13;;;;;;;9.68;2.70;;;13.30;99.90;;;;;;5056850;28;20045;-74
2023/08/10 02:02:39;;;;;;;10.13;2.97;;;13.40;99.90;;;;;;5056733;28;20106;-73
2023/08/10 02:05:05;;;;;;;19.88;3.63;;;13.40;99.90;;;;;;5057172;28;20087;-73
2023/08/10 02:07:31;;;;;;;9.85;3.17;;;13.40;99.90;;;;;;5057431;28;20060;-74
2023/08/10 02:09:57;;;;;;;14.32;3.60;;;13.40;99.90;;;;;;5056694;28;20133;-73
2023/08/10 02:12:23;;;;;;;12.05;3.85;;;13.40;99.90;;;;;;5039121;28;20088;-74
2023/08/10 02:14:50;;;;;;;14.32;3.97;;;13.50;99.90;;;;;;5057337;28;20085;-74
2023/08/10 02:17:16;;;;;;;13.80;3.83;;;13.50;99.90;;;;;;5056693;28;20059;-74
2023/08/10 02:19:42;;;;;;;11.95;3.45;;;13.40;99.90;;;;;;5039011;28;20291;-74
2023/08/10 02:22:08;;;;;;;12.98;4.03;;;13.40;99.90;;;;;;5057068;28;20492;-74
2023/08/10 02:24:33;;;;;;;14.02;3.88;;;13.40;99.90;;;;;;5055278;28;20045;-74
2023/08/10 02:27:00;;;;;;;12.02;3.67;;;13.30;99.90;;;;;;5054942;28;20497;-74
2023/08/10 02:29:26;;;;;;;11.13;4.00;;;13.30;99.90;;;;;;5056512;28;20047;-74
2023/08/10 02:31:52;;;;;;;11.30;3.75;;;13.30;99.90;;;;;;5056194;28;20037;-73
2023/08/10 02:34:17;;;;;;;8.82;3.72;;;13.30;99.90;;;;;;5071700;28;20499;-74
2023/08/10 02:36:43;;;;;;;13.65;4.10;;;13.30;99.90;;;;;;5055479;28;20051;-74
2023/08/10 02:39:09;;;;;;;12.23;4.20;;;13.30;99.90;;;;;;5055804;28;20049;-75
2023/08/10 02:41:35;;;;;;;12.23;4.20;;;13.40;99.90;;;;;;5055223;28;20049;-74
2023/08/10 02:44:01;;;;;;;16.65;4.38;;;13.40;99.90;;;;;;5053615;28;20063;-74
2023/08/10 02:46:27;;;;;;;11.93;4.13;;;13.40;99.90;;;;;;5054862;28;20167;-73
2023/08/10 02:48:54;;;;;;;11.80;4.43;;;13.30;99.90;;;;;;5054426;28;20055;-74
2023/08/10 02:51:20;;;;;;;12.40;4.25;;;13.40;99.90;;;;;;5053600;28;20044;-73
2023/08/10 02:53:45;;;;;;;18.10;4.60;;;13.30;99.90;;;;;;5055261;28;20045;-74
2023/08/10 02:56:11;;;;;;;13.55;4.78;;;13.40;99.90;;;;;;5053459;28;20396;-74
2023/08/10 02:58:37;;;;;;;11.38;4.63;;;13.40;99.90;;;;;;5055166;28;20045;-75
2023/08/10 03:01:06;;;;;;;12.02;4.30;;;13.40;99.90;;;;;;5054629;28;20370;-73
2023/08/10 03:03:33;;;;;;;13.27;4.80;;;13.40;99.90;;;;;;5054663;28;20053;-73
2023/08/10 03:05:59;;;;;;;11.60;4.30;;;13.40;99.90;;;;;;5054531;28;20114;-73
2023/08/10 03:08:25;;;;;;;12.63;3.97;;;13.40;99.90;;;;;;5053630;28;20473;-74
2023/08/10 03:10:51;;;;;;;13.73;4.60;;;13.40;99.90;;;;;;5037661;28;20055;-74
2023/08/10 03:13:17;;;;;;;12.13;4.63;;;13.40;99.90;;;;;;5054184;28;20060;-73
2023/08/10 03:15:43;;;;;;;13.20;4.28;;;13.40;99.90;;;;;;5054306;28;20041;-73
2023/08/10 03:18:09;;;;;;;16.15;4.40;;;13.40;99.90;;;;;;5053215;28;20067;-73
2023/08/10 03:20:35;;;;;;;15.70;4.53;;;13.40;99.90;;;;;;5054341;28;20560;-74
2023/08/10 03:23:00;;;;;;;14.55;5.03;;;13.40;99.90;;;;;;5053319;28;20085;-74
2023/08/10 03:25:26;;;;;;;11.93;4.53;;;13.40;99.90;;;;;;5054778;28;20055;-74
2023/08/10 03:27:52;;;;;;;13.55;4.47;;;13.40;99.90;;;;;;5052979;28;20041;-74
2023/08/10 03:30:17;;;;;;;12.63;4.32;;;13.40;99.90;;;;;;5054136;28;20052;-73
2023/08/10 03:32:43;;;;;;;12.35;4.20;;;13.40;99.90;;;;;;5053217;28;20081;-74
2023/08/10 03:35:10;;;;;;;12.57;3.67;;;13.40;99.90;;;;;;5053499;28;20456;-73
2023/08/10 03:37:36;;;;;;;12.77;4.65;;;13.40;99.90;;;;;;5054090;28;20588;-74
2023/08/10 03:40:02;;;;;;;13.35;4.32;;;13.50;99.90;;;;;;5037320;28;20132;-73
2023/08/10 03:42:28;;;;;;;12.82;3.80;;;13.50;99.90;;;;;;5054076;28;20432;-73
2023/08/10 03:44:55;;;;;;;11.55;4.00;;;13.50;99.90;;;;;;4997281;28;1127904;-73
2023/08/10 03:47:22;;;;;;;10.95;4.13;;;13.50;99.90;;;;;;5055036;28;20060;-74
2023/08/10 03:49:48;;;;;;;;;;;13.50;99.90;;;;;;5055924;28;20119;-74
2023/08/10 03:52:14;;;;;;;11.00;3.78;;;13.50;99.90;;;;;;5055648;28;19956;-73
2023/08/10 03:54:40;;;;;;;11.63;4.20;;;13.50;99.90;;;;;;5053992;28;20179;-74
2023/08/10 03:57:05;;;;;;;13.77;4.07;;;13.50;99.90;;;;;;5054718;28;20098;-73
2023/08/10 03:59:31;;;;;;;14.07;4.22;;;13.60;99.90;;;;;;5054720;28;20045;-74
2023/08/10 04:01:58;;;;;;;12.90;4.30;;;13.60;99.90;;;;;;5054087;28;20041;-73
2023/08/10 04:04:24;;;;;;;16.13;4.28;;;13.60;99.90;;;;;;5037120;28;20064;-75
2023/08/10 04:06:49;;;;;;;10.85;3.85;;;13.60;99.90;;;;;;5037137;28;20048;-74
2023/08/10 04:09:15;;;;;;;12.10;4.38;;;13.60;99.90;;;;;;5036802;28;20081;-74
2023/08/10 04:11:41;;;;;;;12.00;4.22;;;13.60;99.90;;;;;;5053764;28;20045;-75
2023/08/10 04:14:06;;;;;;;15.60;4.55;;;13.60;99.90;;;;;;5053369;28;20076;-75
2023/08/10 04:16:32;;;;;;;15.50;4.32;;;13.60;99.90;;;;;;5054688;28;20090;-75
2023/08/10 04:18:58;;;;;;;12.60;3.80;;;13.60;99.90;;;;;;5054487;28;20080;-75
2023/08/10 04:21:24;;;;;;;12.07;4.13;;;13.60;99.90;;;;;;5055160;28;20049;-75
2023/08/10 04:23:50;;;;;;;11.00;3.85;;;13.60;99.90;;;;;;5053685;28;20044;-75
2023/08/10 04:26:16;;;;;;;13.02;4.10;;;13.70;99.90;;;;;;5053109;28;20482;-75
2023/08/10 04:28:42;;;;;;;12.80;4.13;;;13.70;99.90;;;;;;5053318;28;20052;-74
2023/08/10 04:31:08;;;;;;;11.60;3.77;;;13.70;99.90;;;;;;5054210;28;20378;-74
2023/08/10 04:33:34;;;;;;;16.17;3.97;;;13.70;99.90;;;;;;5036454;28;20056;-75
2023/08/10 04:36:00;;;;;;;9.60;4.40;;;13.70;99.90;;;;;;5053885;28;20045;-73
2023/08/10 04:38:26;;;;;;;17.00;4.10;;;13.70;99.90;;;;;;5036291;28;20094;-73
2023/08/10 04:40:53;;;;;;;11.45;4.70;;;13.70;99.90;;;;;;5053982;28;20076;-74
2023/08/10 04:43:18;;;;;;;10.38;4.43;;;13.70;99.90;;;;;;5053806;28;20057;-73
2023/08/10 04:45:44;;;;;;;14.40;5.15;;;13.80;99.90;;;;;;5054066;28;20094;-74
2023/08/10 04:48:11;;;;;;;15.20;5.10;;;13.70;99.90;;;;;;5052650;28;20052;-73
2023/08/10 04:50:37;;;;;;;15.43;4.57;;;13.80;99.90;;;;;;5053946;28;20053;-74
2023/08/10 04:53:03;;;;;;;13.85;4.93;;;13.80;99.90;;;;;;5053866;28;20044;-74
2023/08/10 04:55:28;;;;;;;14.38;5.15;;;13.80;99.90;;;;;;5052502;28;20404;-73
2023/08/10 04:57:54;;;;;;;14.48;4.70;;;13.80;99.90;;;;;;5052709;28;20454;-74
2023/08/10 05:00:20;;;;;;;15.85;4.43;;;13.80;99.90;;;;;;5052536;28;20049;-75
2023/08/10 05:02:45;;;;;;;14.90;4.93;;;13.90;99.90;;;;;;5052614;28;20041;-74
2023/08/10 05:05:11;;;;;;;14.88;5.20;;;13.90;99.90;;;;;;5052579;28;20057;-74
2023/08/10 05:07:37;;;;;;;14.10;4.32;;;13.90;99.90;;;;;;5070053;28;20048;-74
2023/08/10 05:10:06;;;;;;;16.70;4.90;;;14.00;99.90;;;;;;5053367;28;20041;-74
2023/08/10 05:12:32;;;;;;;12.70;4.72;;;14.00;99.90;;;;;;5053964;28;20051;-74
2023/08/10 05:14:58;;;;;;;14.43;5.00;;;14.00;99.90;;;;;;5053312;28;20045;-73
2023/08/10 05:17:23;;;;;;;15.15;5.35;;;14.00;99.90;;;;;;5053758;28;20552;-73
2023/08/10 05:19:49;;;;;;;12.43;4.82;;;14.00;99.90;;;;;;5052964;28;20048;-74
2023/08/10 05:22:15;;;;;;;11.93;4.70;;;14.00;99.90;;;;;;5052116;28;20057;-74
2023/08/10 05:24:40;;;;;;;14.48;5.07;;;14.10;99.90;;;;;;5052236;28;20037;-73
2023/08/10 05:27:06;;;;;;;14.40;5.05;;;14.10;99.90;;;;;;5053228;28;20123;-73
2023/08/10 05:29:32;;;;;;;13.60;4.78;;;14.20;99.90;;;;;;5052585;28;20052;-74
2023/08/10 05:31:58;;;;;;;13.90;5.47;;;14.30;99.90;;;;;;5053248;28;20056;-75
2023/08/10 05:34:23;;;;;;;10.57;4.78;;;14.40;99.90;;;;;;5051964;28;20044;-73
2023/08/10 05:36:49;;;;;;;14.23;4.68;;;14.40;99.90;;;;;;5053389;28;20132;-73
2023/08/10 05:39:15;;;;;;;11.65;5.32;;;14.60;99.90;;;;;;5052732;28;20049;-73
2023/08/10 05:41:41;;;;;;;10.77;5.00;;;14.70;99.90;;;;;;5052875;28;20041;-74
2023/08/10 05:44:06;;;;;;;15.63;5.28;;;14.80;99.90;;;;;;5051969;28;20053;-73
2023/08/10 05:46:33;;;;;;;17.35;5.22;;;14.80;99.90;;;;;;5051938;28;20051;-74
2023/08/10 05:48:59;;;;;;;18.40;5.47;;;15.00;99.90;;;;;;5052486;28;20095;-74
2023/08/10 05:51:24;;;;;;;16.67;5.20;;;15.00;99.90;;;;;;5052735;28;20100;-74
2023/08/10 05:53:50;;;;;;;13.38;5.45;;;15.00;99.90;;;;;;5051870;28;20041;-74
2023/08/10 05:56:16;;;;;;;11.82;4.80;;;15.10;99.90;;;;;;5053320;28;20037;-73
2023/08/10 05:58:42;;;;;;;12.55;5.18;;;15.20;99.90;;;;;;5051674;28;20041;-73
2023/08/10 06:01:07;;;;;;;16.17;5.38;;;15.30;99.90;;;;;;5052845;28;20041;-73
2023/08/10 06:03:33;;;;;;;12.38;4.82;;;15.40;99.90;;;;;;5052221;28;20059;-74
2023/08/10 06:06:00;;;;;;;13.48;5.50;;;15.50;99.90;;;;;;5052835;28;20041;-73
2023/08/10 06:08:26;;;;;;;;;;;15.60;99.90;;;;;;5053760;28;20045;-74
2023/08/10 06:10:52;;;;;;;13.50;5.20;;;15.70;99.90;;;;;;5085546;28;20280;-73
2023/08/10 06:13:18;;;;;;;11.82;5.30;;;15.80;99.90;;;;;;5053306;28;20762;-74
2023/08/10 06:15:46;;;;;;;14.35;4.88;;;15.80;99.90;;;;;;5052800;28;20048;-74
2023/08/10 06:18:13;;;;;;;18.63;4.85;;;15.80;99.90;;;;;;5052026;28;20063;-74
2023/08/10 06:20:39;;;;;;;19.90;5.13;;;15.70;99.90;;;;;;5056570;28;20091;-74
2023/08/10 06:23:06;;;;;;;15.48;4.35;;;15.70;99.90;;;;;;5056708;28;20041;-75
2023/08/10 06:25:33;;;;;;;12.05;4.05;;;15.80;99.90;;;;;;5056153;28;20493;-73
2023/08/10 06:27:59;;;;;;;14.93;4.43;;;16.00;99.90;;;;;;5056557;28;20048;-75
2023/08/10 06:30:25;;;;;;;15.68;4.32;;;16.20;99.90;;;;;;5056579;28;20060;-73
2023/08/10 06:32:51;;;;;;;11.70;4.30;;;16.30;99.90;;;;;;5058505;28;20056;-74
2023/08/10 06:35:19;;;;;;;10.48;3.35;;;16.50;99.90;;;;;;5059720;28;20036;-74
2023/08/10 06:37:45;;;;;;;13.45;3.17;;;16.70;99.90;;;;;;5057757;28;20600;-74
2023/08/10 06:40:11;;;;;;;10.43;3.13;;;16.80;99.90;;;;;;5057633;28;20092;-73
2023/08/10 06:42:37;;;;;;;14.48;3.20;;;16.90;99.90;;;;;;5057871;28;20052;-73
2023/08/10 06:45:04;;;;;;;10.23;2.90;;;17.00;99.90;;;;;;5039723;28;20045;-74
2023/08/10 06:47:31;;;;;;;8.73;2.47;;;17.00;99.90;;;;;;5055567;28;20060;-75
2023/08/10 06:49:58;;;;;;;16.02;3.25;;;17.00;99.90;;;;;;5056696;28;20529;-73
2023/08/10 06:52:24;;;;;;;;;;;17.20;99.90;;;;;;5055596;28;20501;-74
2023/08/10 06:54:52;;;;;;;7.60;2.85;;;17.30;99.90;;;;;;5054783;28;19924;-74
2023/08/10 06:57:20;;;;;;;9.70;3.33;;;17.30;99.90;;;;;;5056481;28;20123;-73
2023/08/10 06:59:45;;;;;;;10.73;2.90;;;17.30;99.90;;;;;;5056771;28;20119;-73
2023/08/10 07:02:11;;;;;;;12.20;2.38;;;17.40;99.90;;;;;;5054675;28;20487;-74
2023/08/10 07:04:37;;;;;;;6.73;2.63;;;17.50;99.90;;;;;;5055914;28;20045;-73
2023/08/10 07:07:03;;;;;;;11.03;2.40;;;17.40;99.90;;;;;;5055176;28;20469;-74
2023/08/10 07:09:28;;;;;;;9.20;2.30;;;17.60;99.90;;;;;;5055413;28;20416;-74
2023/08/10 07:11:54;;;;;;;16.10;2.63;;;17.60;99.90;;;;;;5055839;28;20063;-75
2023/08/10 07:14:20;;;;;;;11.00;2.63;;;17.70;99.90;;;;;;5054811;28;20434;-74
2023/08/10 07:16:46;;;;;;;11.73;3.03;;;17.70;99.90;;;;;;5055858;28;20041;-74
2023/08/10 07:19:11;;;;;;;15.83;2.53;;;17.70;99.90;;;;;;5056145;28;20048;-73
2023/08/10 07:21:37;;;;;;;9.53;2.53;;;17.70;99.90;;;;;;5056255;28;20208;-74
2023/08/10 07:24:05;;;;;;;7.47;1.77;;;17.90;99.90;;;;;;5054158;28;20137;-74
2023/08/10 07:26:32;;;;;;;11.02;1.85;;;18.00;99.90;;;;;;5055199;28;20045;-74
2023/08/10 07:28:57;;;;;;;9.23;1.75;;;18.00;99.90;;;;;;5053977;28;20495;-74
2023/08/10 07:31:26;;;;;;;6.50;1.37;;;18.20;99.90;;;;;;5053849;28;20044;-74
2023/08/10 07:33:51;;;;;;;12.38;1.70;;;18.20;99.90;;;;;;5055185;28;20405;-74
2023/08/10 07:36:17;;;;;;;9.40;1.10;;;18.20;99.90;;;;;;5054777;28;20037;-74
2023/08/10 07:38:43;;;;;;;12.93;1.60;;;18.40;99.90;;;;;;5055034;28;20045;-73
2023/08/10 07:41:08;;;;;;;7.70;1.57;;;18.50;99.90;;;;;;5054919;28;20049;-72
2023/08/10 07:43:34;;;;;;;7.77;1.53;;;18.60;99.90;;;;;;5053460;28;20049;-75
2023/08/10 07:46:00;;;;;;;7.30;1.35;;;18.70;99.90;;;;;;5054961;28;20604;-73
2023/08/10 07:48:26;;;;;;;9.97;1.73;;;18.80;99.90;;;;;;5055847;28;20044;-73
2023/08/10 07:50:52;;;;;;;6.83;1.50;;;18.60;99.90;;;;;;5055905;28;20457;-74
2023/08/10 07:53:18;;;;;;;6.95;1.40;;;18.70;99.90;;;;;;5054813;28;20448;-73
2023/08/10 07:55:43;;;;;;;8.60;1.87;;;18.50;99.90;;;;;;5055126;28;20045;-73
2023/08/10 07:58:09;;;;;;;9.30;1.73;;;18.70;99.90;;;;;;5054711;28;20053;-73
2023/08/10 08:00:38;;;;;;;7.80;1.50;;;18.70;99.90;;;;;;5053552;28;20061;-74
2023/08/10 08:03:04;;;;;;;12.88;1.42;;;18.70;99.90;;;;;;5055031;28;20045;-73
2023/08/10 08:05:30;;;;;;;14.43;1.52;;;18.80;99.90;;;;;;5054450;28;20056;-73
2023/08/10 08:07:56;;;;;;;10.23;1.70;;;18.80;99.90;;;;;;5054454;28;20045;-74
2023/08/10 08:10:22;;;;;;;8.07;1.70;;;18.70;99.90;;;;;;5053561;28;20072;-74
2023/08/10 08:12:47;;;;;;;10.23;1.83;;;18.80;99.90;;;;;;5055042;28;20063;-73
2023/08/10 08:15:13;;;;;;;12.27;2.53;;;19.00;99.90;;;;;;5053104;28;20470;-75
2023/08/10 08:18:16;;;;;;;8.67;2.30;;;19.00;99.90;;;;;;5054634;28;20136;-73
2023/08/10 08:20:42;;;;;;;8.60;2.28;;;18.90;99.90;;;;;;5054088;28;20045;-74
2023/08/10 08:23:08;;;;;;;11.70;2.30;;;18.90;99.90;;;;;;5054199;28;20106;-73
2023/08/10 08:25:33;;;;;;;8.33;2.30;;;18.80;99.90;;;;;;5052989;28;20049;-73
2023/08/10 08:27:59;;;;;;;6.67;2.03;;;18.80;99.90;;;;;;5054618;28;20041;-73
2023/08/10 08:30:27;;;;;;;14.10;1.67;;;18.80;99.90;;;;;;5053992;28;20139;-73
2023/08/10 08:32:53;;;;;;;5.97;1.48;;;18.80;99.90;;;;;;5054034;28;20374;-72
2023/08/10 08:35:19;;;;;;;9.77;1.57;;;18.90;99.90;;;;;;5036413;28;20052;-73
2023/08/10 08:37:45;;;;;;;9.17;1.70;;;18.80;99.90;;;;;;5054427;28;20425;-72
2023/08/10 08:40:11;;;;;;;6.00;1.50;;;18.70;99.90;;;;;;5054009;28;20397;-73
2023/08/10 08:42:39;;;;;;;7.93;1.70;;;18.90;99.90;;;;;;5053450;28;20392;-73
2023/08/10 08:45:05;;;;;;;15.57;1.92;;;18.80;99.90;;;;;;5053440;28;20421;-73
2023/08/10 08:47:31;;;;;;;12.50;1.73;;;18.70;99.90;;;;;;5053712;28;20047;-73
2023/08/10 08:49:58;;;;;;;13.13;1.30;;;18.90;99.90;;;;;;5052529;28;20435;-72
2023/08/10 08:52:23;;;;;;;10.50;1.65;;;19.00;99.90;;;;;;5053189;28;20448;-73
2023/08/10 08:54:51;;;;;;;8.73;1.70;;;19.20;99.90;;;;;;5052542;28;20045;-73
2023/08/10 08:57:16;;;;;;;11.48;1.88;;;19.20;99.90;;;;;;5053630;28;20123;-73
2023/08/10 08:59:42;;;;;;;11.70;2.00;;;19.30;99.90;;;;;;5052377;28;20136;-72
2023/08/10 09:02:10;;;;;;;7.27;1.60;;;19.30;99.90;;;;;;5054064;28;20496;-72
2023/08/10 09:04:35;;;;;;;11.35;1.90;;;19.50;99.90;;;;;;5053521;28;20041;-73
2023/08/10 09:07:01;;;;;;;9.40;1.73;;;19.70;99.90;;;;;;5053459;28;20384;-73
2023/08/10 09:09:27;;;;;;;10.13;1.60;;;19.90;99.90;;;;;;5053496;28;20041;-73
2023/08/10 09:11:53;;;;;;;8.35;1.90;;;19.90;99.90;;;;;;5053167;28;20045;-73
2023/08/10 09:14:19;;;;;;;9.53;1.63;;;20.00;99.90;;;;;;5053096;28;20072;-73
2023/08/10 09:16:45;;;;;;;7.80;2.00;;;20.10;99.90;;;;;;5052382;28;20048;-72
2023/08/10 09:19:12;;;;;;;8.50;1.83;;;20.20;99.90;;;;;;5052947;28;20493;-73
2023/08/10 09:21:38;;;;;;;9.75;1.92;;;20.00;99.90;;;;;;5052475;28;20131;-74
2023/08/10 09:24:08;;;;;;;;;;;19.60;99.90;;;;;;5054456;28;20041;-74
2023/08/10 09:26:33;;;;;;;7.75;1.40;;;19.70;99.90;;;;;;5053206;28;19959;-72
2023/08/10 09:28:59;;;;;;;6.90;1.23;;;19.60;99.90;;;;;;5052050;28;20434;-73
2023/08/10 09:31:27;;;;;;;6.30;1.43;;;19.80;99.90;;;;;;5052003;28;20087;-74
2023/08/10 09:33:58;;;;;;;10.35;1.17;;;19.70;99.90;;;;;;5053009;28;20477;-73
2023/08/10 09:36:26;;;;;;;8.27;1.73;;;19.80;99.90;;;;;;5052969;28;20040;-73
2023/08/10 09:38:52;;;;;;;10.10;2.10;;;19.60;99.90;;;;;;5053472;28;20048;-73
2023/08/10 09:41:23;;;;;;;9.52;1.70;;;19.60;99.90;;;;;;5051993;28;20436;-73
2023/08/10 09:43:49;;;;;;;8.38;1.55;;;19.70;99.90;;;;;;5053009;28;20063;-72
2023/08/10 09:46:16;;;;;;;8.52;1.17;;;19.70;99.90;;;;;;5052899;28;20045;-73
2023/08/10 09:48:48;;;;;;;7.63;1.27;;;19.90;99.90;;;;;;5053626;28;20049;-73
2023/08/10 09:51:14;;;;;;;7.15;1.63;;;20.00;99.90;;;;;;5051358;28;20552;-74
2023/08/10 09:53:40;;;;;;;13.98;2.40;;;20.10;99.90;;;;;;5052953;28;20045;-72
2023/08/10 09:56:07;;;;;;;7.25;1.58;;;20.20;99.90;;;;;;5057311;28;20076;-73
2023/08/10 09:58:42;;;;;;;8.35;1.65;;;20.20;99.90;;;;;;5039287;28;20046;-73
2023/08/10 10:01:09;;;;;;;9.32;1.70;;;19.80;99.90;;;;;;5055923;28;20390;-74
2023/08/10 10:03:35;;;;;;;10.40;2.13;;;20.00;99.90;;;;;;5057265;28;20041;-73
2023/08/10 10:06:01;;;;;;;10.10;1.80;;;20.00;99.90;;;;;;5056542;28;20049;-72
2023/08/10 10:08:35;;;;;;;7.88;1.45;;;20.00;99.90;;;;;;5057466;28;20123;-73
2023/08/10 10:11:06;;;;;;;10.80;2.33;;;20.00;99.90;;;;;;5055634;28;20471;-72
2023/08/10 10:13:32;;;;;;;12.18;2.42;;;20.00;99.90;;;;;;5055365;28;20044;-72
2023/08/10 10:16:00;;;;;;;5.67;1.60;;;20.10;99.90;;;;;;5055162;28;20041;-73
2023/08/10 10:18:26;;;;;;;10.10;2.30;;;20.20;99.90;;;;;;5056109;28;20084;-73
2023/08/10 10:20:52;;;;;;;9.27;1.90;;;20.30;99.90;;;;;;5056525;28;20080;-73
2023/08/10 10:23:20;;;;;;;11.05;1.75;;;20.30;99.90;;;;;;5056525;28;20389;-73
2023/08/10 10:26:19;;;;;;;8.35;1.88;;;20.50;99.90;;;;;;5056409;28;20102;-72
2023/08/10 10:29:15;;;;;;;7.30;1.88;;;20.60;99.90;;;;;;5034983;28;20060;-72
2023/08/10 10:31:40;;;;;;;;;;;20.60;99.90;;;;;;5056471;28;20048;-74
2023/08/10 10:34:16;;;;;;;8.70;1.73;;;20.80;99.90;;;;;;5088997;28;19982;-74
2023/08/10 10:36:43;;;;;;;7.82;1.88;;;20.90;99.90;;;;;;5054600;28;20288;-73
2023/08/10 10:39:11;;;;;;;9.90;2.05;;;20.50;99.90;;;;;;5055158;28;20092;-74
2023/08/10 10:41:41;;;;;;;8.45;1.88;;;20.60;99.90;;;;;;5056158;28;20048;-74
2023/08/10 10:44:09;;;;;;;10.88;2.30;;;20.80;99.90;;;;;;5038446;28;20123;-74
2023/08/10 10:46:40;;;;;;;11.05;1.92;;;20.90;99.90;;;;;;5055220;28;20057;-74
2023/08/10 10:49:14;;;;;;;11.93;2.13;;;20.70;99.90;;;;;;5054818;28;20051;-74
2023/08/10 10:51:47;;;;;;;14.10;2.20;;;20.80;99.90;;;;;;5056138;28;20098;-74
2023/08/10 10:54:13;;;;;;;9.02;2.08;;;20.80;99.90;;;;;;5056422;28;20473;-74
2023/08/10 10:56:39;;;;;;;8.07;1.63;;;20.80;99.90;;;;;;5056149;28;20051;-74
2023/08/10 10:59:06;;;;;;;12.52;1.77;;;20.90;99.90;;;;;;5054272;28;20135;-73
2023/08/10 11:01:32;;;;;;;10.40;2.20;;;20.70;99.90;;;;;;5054596;28;20080;-72
2023/08/10 11:03:58;;;;;;;6.68;1.90;;;20.80;99.90;;;;;;5038622;28;20056;-72
2023/08/10 11:06:24;;;;;;;10.07;2.43;;;21.10;99.90;;;;;;5056388;28;20378;-73
2023/08/10 11:08:51;;;;;;;7.05;2.33;;;21.40;99.90;;;;;;5055831;28;20040;-74
2023/08/10 11:11:17;;;;;;;10.57;2.83;;;21.70;99.90;;;;;;5055594;28;20056;-74
2023/08/10 11:13:44;;;;;;;9.43;2.28;;;21.70;99.90;;;;;;5053759;28;20424;-74
2023/08/10 11:16:09;;;;;;;10.57;2.72;;;21.70;99.90;;;;;;5054420;28;20093;-74
2023/08/10 11:18:37;;;;;;;8.30;2.33;;;21.90;99.90;;;;;;5055133;28;20405;-74
2023/08/10 11:21:06;;;;;;;10.27;2.67;;;22.00;99.90;;;;;;5037084;28;20049;-73
2023/08/10 11:23:32;;;;;;;9.02;2.70;;;22.10;99.90;;;;;;5054257;28;20057;-73
2023/08/10 11:25:58;;;;;;;10.20;2.33;;;22.20;99.90;;;;;;5053361;28;20405;-73
2023/08/10 11:28:25;;;;;;;9.27;2.75;;;22.20;99.90;;;;;;5055093;28;20489;-73
2023/08/10 11:30:51;;;;;;;9.73;2.60;;;22.50;99.90;;;;;;5054912;28;20128;-72
2023/08/10 11:33:19;;;;;;;11.27;3.00;;;22.50;99.90;;;;;;5053841;28;20080;-72
2023/08/10 11:35:52;;;;;;;11.32;2.67;;;22.50;99.90;;;;;;5053823;28;20049;-72
2023/08/10 11:38:18;;;;;;;13.27;2.55;;;22.50;99.90;;;;;;5055220;28;20074;-74
2023/08/10 11:40:45;;;;;;;9.50;2.60;;;22.60;99.90;;;;;;5054916;28;20080;-74
2023/08/10 11:43:15;;;;;;;10.20;3.50;;;22.70;99.90;;;;;;5054679;28;20049;-73
2023/08/10 11:45:42;;;;;;;9.90;3.05;;;21.90;99.90;;;;;;5054579;28;20444;-75
2023/08/10 11:48:10;;;;;;;12.25;3.25;;;22.00;99.90;;;;;;5054852;28;20052;-73
2023/08/10 11:50:38;;;;;;;17.55;3.75;;;21.90;99.90;;;;;;5053596;28;20080;-74
2023/08/10 11:53:11;;;;;;;13.45;3.05;;;22.10;99.90;;;;;;5053661;28;20047;-74
2023/08/10 11:55:49;;;;;;;12.18;3.13;;;22.00;99.90;;;;;;5054634;28;20126;-73
2023/08/10 11:58:16;;;;;;;11.30;2.95;;;22.30;99.90;;;;;;5054462;28;20067;-73
2023/08/10 12:00:44;;;;;;;12.18;3.35;;;22.50;99.90;;;;;;5054509;28;20123;-73
2023/08/10 12:03:16;;;;;;;10.13;2.75;;;22.40;99.90;;;;;;5054419;28;20119;-73
2023/08/10 12:05:47;;;;;;;13.63;3.15;;;22.20;99.90;;;;;;5036920;28;20500;-73
2023/08/10 12:08:17;;;;;;;11.05;3.28;;;22.40;99.90;;;;;;5053412;28;20052;-74
2023/08/10 12:10:48;;;;;;;14.38;3.42;;;22.60;99.90;;;;;;5053302;28;20114;-76
2023/08/10 12:13:15;;;;;;;6.75;2.63;;;22.60;99.90;;;;;;5054336;28;20041;-72
2023/08/10 12:15:48;;;;;;;7.18;2.40;;;;;;;;;;5053671;28;20053;-74
2023/08/10 12:18:19;;;;;;;7.60;2.30;;;;;;;;;;5053943;28;20048;-73
2023/08/10 12:20:45;;;;;;;13.25;2.78;;;;;;;;;;5053277;28;20052;-74
2023/08/10 12:23:12;;;;;;;11.35;2.88;;;;;;;;;;5053069;28;20056;-73
2023/08/10 12:25:38;;;;;;;;;;;;;;;;;;5053255;28;20041;-74
2023/08/10 12:28:05;;;;;;;9.90;3.10;;;;;;;;;;5053937;28;20265;-73
2023/08/10 12:30:31;;;;;;;8.18;3.10;;;;;;;;;;5054098;28;20051;-74
2023/08/10 12:32:57;;;;;;;11.35;2.70;;;;;;;;;;5054517;28;20048;-74
2023/08/10 12:35:24;;;;;;;12.32;3.42;;;;;;;;;;5052448;28;20045;-73
2023/08/10 12:37:50;;;;;;;12.23;3.00;;;;;;;;;;5053961;28;20102;-75
2023/08/10 12:40:16;;;;;;;9.07;2.92;;;;;;;;;;5053848;28;20045;-75
2023/08/10 12:42:45;;;;;;;11.98;2.63;;;;;;;;;;5069552;28;20049;-74
2023/08/10 12:45:12;;;;;;;9.70;2.95;;;;;;;;;;5052737;28;20088;-75